Time;durP1;ratioP1;P1;durP2;ratioP2;P2;SDS_P1;SDS_P2;PMS_P1;PMS_P2;Temp;Humidity;BMP_temperature;BMP_pressure;BME280_temperature;BME280_humidity;BME280_pressure;Samples;Min_cycle;Max_cycle;Signal;HPM_P1;HPM_P2
2021/07/17 00:00:08;;;;;;;2.75;2.55;;;;;;;;;;4993364;28;20034;-77
2021/07/17 00:02:35;;;;;;;3.40;3.10;;;;;;;;;;4993590;28;20467;-76
2021/07/17 00:05:01;;;;;;;2.45;2.25;;;;;;;;;;4991994;28;20031;-76
2021/07/17 00:07:27;;;;;;;2.70;2.50;;;;;;;;;;4992423;28;20084;-77
2021/07/17 00:09:54;;;;;;;2.75;2.50;;;;;;;;;;4993191;28;20043;-77
2021/07/17 00:12:20;;;;;;;2.67;2.47;;;;;;;;;;4992155;28;20054;-77
2021/07/17 00:14:46;;;;;;;2.65;2.45;;;;;;;;;;4993382;28;20080;-77
2021/07/17 00:17:12;;;;;;;2.97;2.72;;;;;;;;;;4993351;28;20023;-77
2021/07/17 00:19:39;;;;;;;3.00;2.80;;;;;;;;;;4992975;28;20037;-75
2021/07/17 00:22:05;;;;;;;3.05;2.80;;;;;;;;;;4994870;28;20046;-76
2021/07/17 00:24:31;;;;;;;3.20;2.90;;;;;;;;;;5004111;28;20048;-78
2021/07/17 00:26:57;;;;;;;2.80;2.60;;;;;;;;;;5013037;28;20056;-77
2021/07/17 00:29:23;;;;;;;2.67;2.47;;;;;;;;;;5012102;28;20467;-76
2021/07/17 00:31:49;;;;;;;2.50;2.30;;;;;;;;;;5012199;28;20057;-75
2021/07/17 00:34:16;;;;;;;3.65;3.35;;;;;;;;;;5012580;28;20048;-77
2021/07/17 00:36:42;;;;;;;3.65;3.35;;;;;;;;;;5011358;28;20481;-76
2021/07/17 00:39:08;;;;;;;6.25;4.65;;;;;;;;;;5012152;28;20105;-76
2021/07/17 00:41:34;;;;;;;3.72;3.40;;;;;;;;;;5013097;28;20384;-76
2021/07/17 00:44:00;;;;;;;3.92;3.63;;;;;;;;;;5012658;28;20052;-77
2021/07/17 00:46:28;;;;;;;3.55;3.25;;;;;;;;;;5012845;28;20056;-76
2021/07/17 00:48:54;;;;;;;4.28;3.90;;;;;;;;;;5009084;28;20096;-76
2021/07/17 00:51:23;;;;;;;4.72;4.32;;;;;;;;;;4993254;28;20037;-76
2021/07/17 00:53:49;;;;;;;4.05;3.75;;;;;;;;;;5000062;28;20022;-76
2021/07/17 00:56:16;;;;;;;4.47;4.07;;;;;;;;;;5011627;28;20022;-76
2021/07/17 00:58:42;;;;;;;4.57;4.18;;;;;;;;;;5011812;28;20080;-75
2021/07/17 01:01:08;;;;;;;5.78;4.63;;;;;;;;;;5011963;28;20026;-76
2021/07/17 01:03:34;;;;;;;4.15;3.85;;;;;;;;;;5012591;28;20030;-76
2021/07/17 01:06:00;;;;;;;4.90;4.50;;;;;;;;;;5012830;28;20087;-76
2021/07/17 01:08:26;;;;;;;4.57;4.22;;;;;;;;;;5012110;28;20067;-76
2021/07/17 01:10:52;;;;;;;4.60;4.20;;;;;;;;;;5010961;28;20028;-76
2021/07/17 01:13:19;;;;;;;5.18;4.78;;;;;;;;;;5012258;28;20038;-76
2021/07/17 01:15:45;;;;;;;4.45;3.95;;;;;;;;;;5012780;28;20096;-76
2021/07/17 01:18:12;;;;;;;4.85;4.40;;;;;;;;;;5015538;28;20018;-77
2021/07/17 01:20:39;;;;;;;5.20;4.70;;;;;;;;;;5015440;28;20029;-76
2021/07/17 01:23:05;;;;;;;5.70;4.57;;;;;;;;;;5011115;28;20168;-76
2021/07/17 01:25:34;;;;;;;4.85;4.43;;;;;;;;;;5009269;28;20413;-77
2021/07/17 01:28:00;;;;;;;7.10;4.53;;;;;;;;;;5015951;28;20564;-76
2021/07/17 01:30:31;;;;;;;5.32;4.53;;;;;;;;;;5016196;28;20014;-76
2021/07/17 01:32:58;;;;;;;7.25;5.38;;;;;;;;;;5014201;28;20026;-76
2021/07/17 01:35:24;;;;;;;5.18;4.38;;;;;;;;;;5015505;28;20394;-76
2021/07/17 01:37:50;;;;;;;8.35;5.05;;;;;;;;;;5015480;28;20021;-76
2021/07/17 01:40:20;;;;;;;4.80;4.40;;;;;;;;;;5015128;28;20058;-76
2021/07/17 01:42:47;;;;;;;8.63;5.28;;;;;;;;;;5015383;28;20569;-77
2021/07/17 01:45:20;;;;;;;5.45;4.32;;;;;;;;;;5015141;28;20029;-78
2021/07/17 01:47:46;;;;;;;5.70;5.00;;;;;;;;;;5014954;28;20410;-77
2021/07/17 01:50:12;;;;;;;5.00;4.60;;;;;;;;;;5001707;28;20037;-76
2021/07/17 01:52:38;;;;;;;5.00;4.55;;;;;;;;;;5001473;28;20022;-76
2021/07/17 01:55:08;;;;;;;6.18;4.22;;;;;;;;;;5006281;28;20022;-76
2021/07/17 01:57:35;;;;;;;5.18;4.63;;;;;;;;;;5030411;28;20024;-76
2021/07/17 02:00:01;;;;;;;5.07;4.68;;;;;;;;;;5026968;28;20469;-76
2021/07/17 02:02:27;;;;;;;4.97;4.00;;;;;;;;;;5014068;28;20084;-77
2021/07/17 02:04:53;;;;;;;5.68;4.90;;;;;;;;;;5015181;28;20053;-77
2021/07/17 02:07:19;;;;;;;5.18;4.60;;;;;;;;;;5015026;28;20034;-77
2021/07/17 02:09:45;;;;;;;5.22;4.13;;;;;;;;;;5014390;28;20112;-78
2021/07/17 02:12:11;;;;;;;4.72;4.32;;;;;;;;;;5015010;28;20033;-76
2021/07/17 02:14:38;;;;;;;4.65;4.25;;;;;;;;;;5014868;28;20029;-77
2021/07/17 02:17:07;;;;;;;5.20;4.57;;;;;;;;;;5014686;28;20026;-77
2021/07/17 02:19:33;;;;;;;6.55;5.20;;;;;;;;;;5013060;28;20089;-76
2021/07/17 02:21:59;;;;;;;7.80;5.03;;;;;;;;;;5011007;28;20023;-76
2021/07/17 02:24:25;;;;;;;5.63;5.10;;;;;;;;;;5006421;28;20041;-76
2021/07/17 02:26:51;;;;;;;6.00;5.40;;;;;;;;;;5014561;28;20022;-77
2021/07/17 02:29:17;;;;;;;6.05;5.13;;;;;;;;;;5012252;28;20026;-76
2021/07/17 02:31:43;;;;;;;6.70;5.13;;;;;;;;;;5013236;28;20099;-78
2021/07/17 02:34:10;;;;;;;5.65;5.15;;;;;;;;;;5014577;28;20513;-78
2021/07/17 02:36:37;;;;;;;5.85;5.38;;;;;;;;;;5014422;28;20030;-76
2021/07/17 02:39:04;;;;;;;6.20;5.60;;;;;;;;;;5014124;28;20048;-77
2021/07/17 02:41:30;;;;;;;6.32;5.00;;;;;;;;;;5014488;28;20514;-77
2021/07/17 02:43:56;;;;;;;5.82;5.07;;;;;;;;;;5014441;28;20405;-77
2021/07/17 02:46:22;;;;;;;5.97;5.38;;;;;;;;;;5014240;28;20097;-77
2021/07/17 02:48:48;;;;;;;6.20;5.57;;;;;;;;;;5012014;28;20030;-76
2021/07/17 02:51:14;;;;;;;5.47;4.97;;;;;;;;;;4994902;28;20034;-76
2021/07/17 02:53:40;;;;;;;6.22;4.70;;;;;;;;;;5002635;28;20113;-76
2021/07/17 02:56:07;;;;;;;6.40;5.80;;;;;;;;;;5012544;28;20049;-76
2021/07/17 02:58:33;;;;;;;6.80;6.07;;;;;;;;;;5013832;28;20498;-77
2021/07/17 03:00:59;;;;;;;7.13;5.68;;;;;;;;;;5013887;28;20026;-76
2021/07/17 03:03:25;;;;;;;5.05;4.65;;;;;;;;;;5014332;28;20030;-76
2021/07/17 03:05:51;;;;;;;5.28;4.78;;;;;;;;;;5014287;28;20100;-76
2021/07/17 03:08:22;;;;;;;5.00;4.60;;;;;;;;;;5015784;28;20398;-77
2021/07/17 03:10:48;;;;;;;4.93;4.43;;;;;;;;;;5013906;28;20030;-76
2021/07/17 03:13:14;;;;;;;5.05;4.65;;;;;;;;;;5012186;28;20129;-78
2021/07/17 03:15:41;;;;;;;6.95;6.35;;;;;;;;;;5013941;28;20040;-76
2021/07/17 03:18:07;;;;;;;6.47;5.88;;;;;;;;;;5013971;28;20026;-79
2021/07/17 03:20:33;;;;;;;7.65;6.10;;;;;;;;;;5014099;28;20024;-76
2021/07/17 03:22:59;;;;;;;5.60;5.07;;;;;;;;;;5009436;28;20488;-76
2021/07/17 03:25:25;;;;;;;5.50;5.00;;;;;;;;;;5006281;28;20022;-76
2021/07/17 03:27:51;;;;;;;5.88;4.53;;;;;;;;;;5013730;28;20471;-76
2021/07/17 03:30:18;;;;;;;5.60;5.10;;;;;;;;;;5013529;28;20064;-77
2021/07/17 03:32:44;;;;;;;4.70;4.30;;;;;;;;;;5013375;28;20079;-76
2021/07/17 03:35:10;;;;;;;6.85;6.25;;;;;;;;;;5013600;28;20061;-76
2021/07/17 03:37:36;;;;;;;7.90;6.45;;;;;;;;;;5012212;28;20578;-76
2021/07/17 03:40:03;;;;;;;8.00;7.18;;;;;;;;;;5013080;28;20058;-77
2021/07/17 03:42:29;;;;;;;6.38;5.78;;;;;;;;;;5013394;28;20029;-77
2021/07/17 03:44:55;;;;;;;7.13;6.47;;;;;;;;;;5013148;28;20037;-76
2021/07/17 03:47:21;;;;;;;6.55;5.93;;;;;;;;;;5013620;28;20056;-77
2021/07/17 03:49:48;;;;;;;8.52;6.68;;;;;;;;;;5002693;28;20018;-78
2021/07/17 03:52:14;;;;;;;6.28;5.78;;;;;;;;;;4993069;28;20030;-77
2021/07/17 03:54:40;;;;;;;7.30;6.05;;;;;;;;;;5005181;28;20030;-77
2021/07/17 03:57:06;;;;;;;6.30;5.70;;;;;;;;;;5013471;28;20516;-78
2021/07/17 03:59:32;;;;;;;6.75;6.15;;;;;;;;;;5012804;28;20044;-76
2021/07/17 04:01:58;;;;;;;5.75;5.22;;;;;;;;;;5013271;28;20422;-77
2021/07/17 04:04:25;;;;;;;7.07;6.38;;;;;;;;;;5011811;28;20030;-76
2021/07/17 04:06:51;;;;;;;6.93;6.32;;;;;;;;;;5013052;28;20026;-77
2021/07/17 04:09:17;;;;;;;6.70;6.10;;;;;;;;;;5012463;28;20033;-77
2021/07/17 04:11:43;;;;;;;6.78;5.97;;;;;;;;;;5011702;28;20106;-76
2021/07/17 04:14:09;;;;;;;7.60;6.90;;;;;;;;;;5012821;28;20040;-76
2021/07/17 04:16:35;;;;;;;6.95;6.13;;;;;;;;;;5012839;28;20097;-76
2021/07/17 04:19:01;;;;;;;6.78;6.18;;;;;;;;;;5012530;28;20026;-75
2021/07/17 04:21:27;;;;;;;8.52;6.95;;;;;;;;;;5012680;28;20025;-75
2021/07/17 04:23:53;;;;;;;7.47;6.78;;;;;;;;;;5001277;28;20399;-77
2021/07/17 04:26:19;;;;;;;7.32;6.60;;;;;;;;;;5012269;28;20081;-77
2021/07/17 04:28:45;;;;;;;7.28;6.68;;;;;;;;;;5012137;28;20033;-77
2021/07/17 04:31:11;;;;;;;7.82;6.93;;;;;;;;;;5012969;28;20030;-78
2021/07/17 04:33:37;;;;;;;9.98;8.10;;;;;;;;;;5012830;28;20080;-77
2021/07/17 04:36:04;;;;;;;11.23;8.48;;;;;;;;;;5011475;28;20026;-76
2021/07/17 04:38:31;;;;;;;10.02;8.38;;;;;;;;;;5012473;28;20097;-76
2021/07/17 04:40:57;;;;;;;9.98;7.68;;;;;;;;;;5012767;28;20075;-77
2021/07/17 04:43:23;;;;;;;8.38;7.60;;;;;;;;;;5012534;28;20026;-78
2021/07/17 04:45:49;;;;;;;9.10;8.30;;;;;;;;;;5012625;28;20049;-77
2021/07/17 04:48:15;;;;;;;10.63;9.50;;;;;;;;;;5012602;28;20029;-78
2021/07/17 04:50:41;;;;;;;13.73;10.00;;;;;;;;;;4998945;28;20041;-76
2021/07/17 04:53:07;;;;;;;12.15;10.35;;;;;;;;;;5013562;28;20053;-77
2021/07/17 04:55:33;;;;;;;12.40;10.73;;;;;;;;;;5007810;28;20026;-76
2021/07/17 04:57:59;;;;;;;14.00;11.40;;;;;;;;;;5011758;28;20041;-77
2021/07/17 05:00:25;;;;;;;13.07;10.82;;;;;;;;;;5023568;22;20066;-79
2021/07/17 05:02:52;;;;;;;17.70;12.25;;;;;;;;;;5014867;28;20093;-77
2021/07/17 05:05:19;;;;;;;14.05;11.95;;;;;;;;;;5020923;28;20025;-77
2021/07/17 05:07:49;;;;;;;13.25;11.82;;;;;;;;;;5020547;28;20566;-78
2021/07/17 05:10:16;;;;;;;13.80;12.25;;;;;;;;;;5019648;28;20112;-80
2021/07/17 05:12:42;;;;;;;15.05;12.32;;;;;;;;;;5019161;28;20026;-78
2021/07/17 05:15:09;;;;;;;14.85;12.38;;;;;;;;;;5015294;28;20109;-79
2021/07/17 05:17:35;;;;;;;13.55;11.23;;;;;;;;;;5020190;28;20029;-80
2021/07/17 05:20:01;;;;;;;19.90;12.95;;;;;;;;;;5020457;28;20113;-80
2021/07/17 05:22:28;;;;;;;13.75;11.65;;;;;;;;;;5024094;28;20044;-78
2021/07/17 05:24:54;;;;;;;16.08;12.93;;;;;;;;;;5029897;28;20021;-79
2021/07/17 05:27:20;;;;;;;12.95;11.48;;;;;;;;;;5020177;28;20451;-80
2021/07/17 05:29:47;;;;;;;21.65;15.35;;;;;;;;;;5018924;28;20444;-78
2021/07/17 05:32:13;;;;;;;18.73;16.35;;;;;;;;;;5037735;28;20021;-79
2021/07/17 05:34:40;;;;;;;18.88;16.60;;;;;;;;;;5024886;28;20081;-81
2021/07/17 05:37:07;;;;;;;24.60;19.55;;;;;;;;;;4998936;28;20045;-80
2021/07/17 05:39:33;;;;;;;19.13;16.48;;;;;;;;;;5016607;28;20036;-80
2021/07/17 05:41:59;;;;;;;25.15;19.15;;;;;;;;;;5016468;28;20018;-80
2021/07/17 05:44:25;;;;;;;24.75;19.10;;;;;;;;;;4998380;28;20342;-80
2021/07/17 05:46:51;;;;;;;20.17;16.67;;;;;;;;;;4999181;28;20033;-79
2021/07/17 05:49:17;;;;;;;23.15;18.00;;;;;;;;;;5016261;28;20030;-79
2021/07/17 05:51:43;;;;;;;17.75;15.85;;;;;;;;;;4997956;28;20034;-79
2021/07/17 05:54:09;;;;;;;26.77;21.08;;;;;;;;;;5036907;28;20036;-78
2021/07/17 05:56:35;;;;;;;26.80;21.33;;;;;;;;;;5027317;28;20026;-77
2021/07/17 05:59:01;;;;;;;27.02;20.98;;;;;;;;;;5018799;28;20034;-79
2021/07/17 06:01:27;;;;;;;31.05;23.25;;;;;;;;;;5005158;28;20061;-79
2021/07/17 06:03:53;;;;;;;31.10;24.27;;;;;;;;;;5024116;28;20084;-80
2021/07/17 06:06:19;;;;;;;25.67;20.55;;;;;;;;;;5022712;28;20022;-80
2021/07/17 06:08:45;;;;;;;33.70;24.17;;;;;;;;;;5020812;28;20098;-79
2021/07/17 06:11:12;;;;;;;32.97;25.30;;;;;;;;;;5020930;28;20034;-79
2021/07/17 06:13:38;;;;;;;31.15;22.63;;;;;;;;;;5002272;28;20038;-80
2021/07/17 06:16:04;;;;;;;29.95;22.75;;;;;;;;;;5003544;28;20033;-81
2021/07/17 06:18:30;;;;;;;29.95;21.80;;;;;;;;;;5030854;28;20022;-86
2021/07/17 06:20:58;;;;;;;27.88;21.35;;;;;;;;;;5014004;28;20022;-85
2021/07/17 06:23:24;;;;;;;26.60;21.42;;;;;;;;;;5001169;28;20029;-85
2021/07/17 06:25:50;;;;;;;29.20;22.33;;;;;;;;;;5047186;28;20025;-86
2021/07/17 06:28:16;;;;;;;24.73;20.15;;;;;;;;;;5034216;28;20026;-84
2021/07/17 06:30:42;;;;;;;26.13;19.83;;;;;;;;;;5048567;28;20075;-84
2021/07/17 06:33:08;;;;;;;23.23;19.35;;;;;;;;;;5035454;28;20030;-78
2021/07/17 06:35:34;;;;;;;32.03;24.25;;;;;;;;;;5027822;28;20046;-78
2021/07/17 06:38:00;;;;;;;33.38;23.50;;;;;;;;;;5024851;28;20030;-81
2021/07/17 06:40:26;;;;;;;32.30;24.25;;;;;;;;;;5020708;28;20026;-81
2021/07/17 06:42:52;;;;;;;28.50;20.38;;;;;;;;;;5021597;28;20030;-80
2021/07/17 06:45:19;;;;;;;31.70;23.00;;;;;;;;;;5021856;28;20022;-79
2021/07/17 06:47:46;;;;;;;32.42;23.63;;;;;;;;;;5024084;28;20018;-78
2021/07/17 06:50:12;;;;;;;31.90;22.98;;;;;;;;;;5019991;28;20038;-79
2021/07/17 06:52:39;;;;;;;33.97;23.75;;;;;;;;;;5002533;28;20076;-79
2021/07/17 06:55:06;;;;;;;29.88;23.60;;;;;;;;;;5041116;28;20018;-80
2021/07/17 06:57:32;;;;;;;29.95;25.33;;;;;;;;;;5048194;28;20036;-79
2021/07/17 06:59:58;;;;;;;28.35;24.42;;;;;;;;;;5015872;28;20460;-80
2021/07/17 07:02:24;;;;;;;32.30;24.75;;;;;;;;;;5032176;28;20030;-80
2021/07/17 07:04:50;;;;;;;27.00;22.15;;;;;;;;;;5031369;28;20057;-80
2021/07/17 07:07:16;;;;;;;30.17;24.48;;;;;;;;;;5023195;28;20025;-80
2021/07/17 07:09:42;;;;;;;31.45;24.27;;;;;;;;;;5019956;28;20383;-79
2021/07/17 07:12:08;;;;;;;35.92;25.50;;;;;;;;;;5020514;28;20026;-80
2021/07/17 07:14:34;;;;;;;33.08;24.65;;;;;;;;;;5019884;28;20030;-80
2021/07/17 07:17:01;;;;;;;34.67;25.75;;;;;;;;;;5020621;28;20037;-80
2021/07/17 07:19:27;;;;;;;35.55;24.65;;;;;;;;;;5037544;28;20084;-81
2021/07/17 07:21:53;;;;;;;36.88;27.33;;;;;;;;;;5022731;28;20022;-81
2021/07/17 07:24:19;;;;;;;32.63;26.00;;;;;;;;;;5003798;28;20025;-79
2021/07/17 07:26:45;;;;;;;32.95;24.52;;;;;;;;;;4997293;28;20498;-79
2021/07/17 07:29:12;;;;;;;32.28;25.35;;;;;;;;;;5016884;28;20042;-80
2021/07/17 07:31:38;;;;;;;33.25;24.20;;;;;;;;;;5018774;28;20025;-79
2021/07/17 07:34:04;;;;;;;34.55;25.75;;;;;;;;;;5001975;28;20033;-80
2021/07/17 07:36:30;;;;;;;32.10;24.58;;;;;;;;;;5019023;28;20026;-78
2021/07/17 07:38:56;;;;;;;30.20;23.70;;;;;;;;;;5018148;28;20037;-80
2021/07/17 07:41:22;;;;;;;31.92;24.20;;;;;;;;;;5003941;28;20053;-81
2021/07/17 07:43:48;;;;;;;36.47;27.73;;;;;;;;;;5014571;28;20048;-79
2021/07/17 07:46:15;;;;;;;38.30;26.38;;;;;;;;;;5031362;28;20075;-79
2021/07/17 07:48:44;;;;;;;36.72;27.25;;;;;;;;;;5024459;28;20085;-81
2021/07/17 07:51:10;;;;;;;34.25;25.33;;;;;;;;;;5019871;28;20164;-79
2021/07/17 07:53:36;;;;;;;33.58;25.83;;;;;;;;;;5003888;28;20113;-79
2021/07/17 07:56:02;;;;;;;33.42;24.27;;;;;;;;;;5033321;28;20037;-79
2021/07/17 07:58:29;;;;;;;37.20;25.80;;;;;;;;;;5000966;28;20048;-79
2021/07/17 08:00:55;;;;;;;32.20;24.15;;;;;;;;;;5002121;28;20040;-79
2021/07/17 08:03:21;;;;;;;27.85;22.15;;;;;;;;;;5001829;28;20184;-78
2021/07/17 08:05:47;;;;;;;30.80;23.60;;;;;;;;;;5019405;28;20029;-78
2021/07/17 08:08:13;;;;;;;33.35;24.20;;;;;;;;;;5021141;28;20100;-79
2021/07/17 08:10:39;;;;;;;27.17;20.38;;;;;;;;;;5024285;28;20378;-80
2021/07/17 08:13:05;;;;;;;28.50;22.27;;;;;;;;;;5007267;28;20033;-79
2021/07/17 08:15:32;;;;;;;30.92;22.73;;;;;;;;;;5006735;28;20026;-79
2021/07/17 08:18:01;;;;;;;27.98;21.33;;;;;;;;;;5005656;28;20102;-80
2021/07/17 08:20:27;;;;;;;28.17;22.10;;;;;;;;;;5019564;28;20030;-79
2021/07/17 08:22:53;;;;;;;26.67;21.52;;;;;;;;;;5017700;28;20030;-79
2021/07/17 08:25:19;;;;;;;27.08;21.10;;;;;;;;;;5026206;28;20493;-79
2021/07/17 08:27:45;;;;;;;27.63;20.52;;;;;;;;;;5020483;28;20188;-81
2021/07/17 08:30:12;;;;;;;31.55;23.27;;;;;;;;;;5001770;28;20026;-81
2021/07/17 08:32:39;;;;;;;25.48;21.00;;;;;;;;;;5002842;28;20034;-80
2021/07/17 08:35:05;;;;;;;25.52;21.67;;;;;;;;;;5002886;28;20048;-78
2021/07/17 08:37:34;;;;;;;33.17;22.30;;;;;;;;;;5019670;28;20025;-80
2021/07/17 08:40:01;;;;;;;29.50;22.23;;;;;;;;;;5003818;28;20235;-80
2021/07/17 08:42:28;;;;;;;27.85;22.73;;;;;;;;;;5021338;28;20057;-80
2021/07/17 08:44:55;;;;;;;33.15;22.75;;;;;;;;;;5019371;28;20036;-79
2021/07/17 08:47:21;;;;;;;30.83;21.83;;;;;;;;;;5000730;28;20056;-79
2021/07/17 08:49:48;;;;;;;28.27;21.98;;;;;;;;;;4999936;28;20030;-79
2021/07/17 08:52:14;;;;;;;25.40;20.77;;;;;;;;;;5019277;28;20030;-79
2021/07/17 08:54:40;;;;;;;28.30;21.70;;;;;;;;;;5026024;28;20079;-80
2021/07/17 08:57:09;;;;;;;21.20;18.35;;;;;;;;;;5008467;28;20501;-79
2021/07/17 08:59:36;;;;;;;30.00;20.70;;;;;;;;;;5017070;28;20022;-79
2021/07/17 09:02:02;;;;;;;26.33;20.75;;;;;;;;;;5018010;28;20046;-79
2021/07/17 09:04:28;;;;;;;24.60;19.90;;;;;;;;;;5019348;28;20169;-79
2021/07/17 09:06:55;;;;;;;27.38;20.73;;;;;;;;;;5019145;28;20069;-80
2021/07/17 09:09:34;;;;;;;24.52;18.88;;;;;;;;;;5018044;28;20033;-79
2021/07/17 09:12:01;;;;;;;24.90;20.05;;;;;;;;;;5001881;28;20038;-80
2021/07/17 09:14:44;;;;;;;24.48;20.42;;;;;;;;;;5020717;28;20030;-80
2021/07/17 09:17:10;;;;;;;24.88;20.35;;;;;;;;;;5025474;28;20030;-80
2021/07/17 09:19:51;;;;;;;21.27;18.88;;;;;;;;;;5004217;28;20133;-78
2021/07/17 09:22:30;;;;;;;22.10;19.05;;;;;;;;;;5017730;28;20086;-80
2021/07/17 09:25:10;;;;;;;22.75;19.45;;;;;;;;;;5028129;28;20480;-79
2021/07/17 09:27:36;;;;;;;23.27;19.05;;;;;;;;;;5015888;28;20064;-79
2021/07/17 09:30:04;;;;;;;21.15;17.55;;;;;;;;;;5016390;28;20092;-80
2021/07/17 09:32:30;;;;;;;22.83;18.30;;;;;;;;;;5000260;28;20096;-79
2021/07/17 09:35:08;;;;;;;20.33;17.27;;;;;;;;;;5018608;28;20053;-78
2021/07/17 09:37:34;;;;;;;19.00;15.80;;;;;;;;;;5020666;28;20030;-79
2021/07/17 09:40:00;;;;;;;20.90;15.93;;;;;;;;;;5021704;28;20115;-79
2021/07/17 09:42:26;;;;;;;16.40;14.57;;;;;;;;;;5027206;28;20033;-78
2021/07/17 09:44:53;;;;;;;16.50;14.60;;;;;;;;;;5035817;28;20129;-78
2021/07/17 09:47:21;;;;;;;17.77;14.35;;;;;;;;;;5031401;28;20026;-79
2021/07/17 09:49:47;;;;;;;17.67;14.23;;;;;;;;;;5004108;28;20078;-79
2021/07/17 09:52:14;;;;;;;15.90;13.95;;;;;;;;;;5022088;28;20026;-79
2021/07/17 09:54:41;;;;;;;18.73;14.15;;;;;;;;;;5010478;28;20029;-79
2021/07/17 09:57:07;;;;;;;19.85;13.75;;;;;;;;;;5031782;28;20026;-80
2021/07/17 09:59:33;;;;;;;15.48;12.85;;;;;;;;;;5025296;28;20088;-81
2021/07/17 10:01:59;;;;;;;17.83;13.88;;;;;;;;;;5025938;28;20101;-80
2021/07/17 10:04:26;;;;;;;19.58;13.15;;;;;;;;;;5026361;28;20037;-80
2021/07/17 10:07:01;;;;;;;16.88;14.40;;;;;;;;;;5008761;28;20034;-79
2021/07/17 10:09:27;;;;;;;14.15;12.10;;;;;;;;;;5012604;28;20034;-80
2021/07/17 10:11:55;;;;;;;19.42;13.95;;;;;;;;;;5023696;28;20049;-80
2021/07/17 10:14:22;;;;;;;16.77;12.88;;;;;;;;;;5007399;28;20032;-79
2021/07/17 10:16:49;;;;;;;17.42;13.05;;;;;;;;;;5005748;28;20022;-80
2021/07/17 10:19:16;;;;;;;19.25;13.52;;;;;;;;;;5024323;28;20039;-80
2021/07/17 10:21:43;;;;;;;16.42;13.90;;;;;;;;;;5022851;28;20054;-79
2021/07/17 10:24:11;;;;;;;18.77;15.20;;;;;;;;;;5007042;28;20041;-79
2021/07/17 10:26:37;;;;;;;19.90;15.93;;;;;;;;;;5003538;28;20025;-80
2021/07/17 10:29:11;;;;;;;23.13;15.23;;;;;;;;;;5024874;28;20064;-79
2021/07/17 10:31:38;;;;;;;21.58;15.98;;;;;;;;;;5025170;28;20456;-79
2021/07/17 10:34:04;;;;;;;20.10;15.90;;;;;;;;;;5007317;28;20036;-77
2021/07/17 10:36:31;;;;;;;25.17;16.75;;;;;;;;;;5009030;28;20125;-79
2021/07/17 10:38:59;;;;;;;24.88;18.05;;;;;;;;;;5005421;28;20026;-81
2021/07/17 10:41:26;;;;;;;22.50;15.55;;;;;;;;;;5023756;28;20082;-79
2021/07/17 10:43:53;;;;;;;20.40;15.60;;;;;;;;;;5007343;28;20026;-80
2021/07/17 10:46:48;;;;;;;17.45;14.80;;;;;;;;;;5024639;28;20022;-80
2021/07/17 10:49:14;;;;;;;23.92;16.83;;;;;;;;;;5003517;28;20070;-80
2021/07/17 10:51:42;;;;;;;24.83;16.77;;;;;;;;;;5025881;28;20033;-80
2021/07/17 10:54:09;;;;;;;20.08;15.73;;;;;;;;;;5023141;28;20105;-80
2021/07/17 10:56:36;;;;;;;18.90;15.13;;;;;;;;;;5051279;28;20053;-79
2021/07/17 10:59:11;;;;;;;24.23;15.38;;;;;;;;;;5040564;28;20029;-80
2021/07/17 11:02:03;;;;;;;21.15;15.80;;;;;;;;;;5014709;28;20070;-79
2021/07/17 11:04:44;;;;;;;18.40;15.93;;;;;;;;;;5029452;28;20045;-79
2021/07/17 11:07:16;;;;;;;24.30;16.98;;;;;;;;;;5022690;28;20088;-78
2021/07/17 11:09:54;;;;;;;25.52;18.58;;;;;;;;;;5004031;28;20034;-79
2021/07/17 11:12:20;;;;;;;22.60;17.50;;;;;;;;;;5021547;28;20063;-80
2021/07/17 11:14:46;;;;;;;23.52;17.95;;;;;;;;;;5021611;28;20038;-79
2021/07/17 11:17:13;;;;;;;23.63;19.17;;;;;;;;;;5021254;28;20025;-78
2021/07/17 11:19:39;;;;;;;25.52;18.38;;;;;;;;;;5020861;28;20487;-78
2021/07/17 11:22:14;;;;;;;22.55;16.85;;;;;;;;;;5002510;28;20533;-78
2021/07/17 11:24:41;;;;;;;24.23;18.25;;;;;;;;;;5003377;28;20036;-80
2021/07/17 11:27:08;;;;;;;24.83;17.33;;;;;;;;;;5020787;28;20057;-79
2021/07/17 11:29:39;;;;;;;25.15;17.88;;;;;;;;;;5021182;28;20317;-79
2021/07/17 11:32:09;;;;;;;32.78;19.70;;;;;;;;;;5029717;28;20037;-79
2021/07/17 11:34:36;;;;;;;23.23;18.20;;;;;;;;;;5029437;28;20033;-79
2021/07/17 11:37:06;;;;;;;23.60;17.30;;;;;;;;;;5020187;28;20032;-79
2021/07/17 11:39:33;;;;;;;22.52;17.00;;;;;;;;;;5023055;28;20549;-81
2021/07/17 11:42:00;;;;;;;21.80;15.93;;;;;;;;;;5025825;28;20045;-81
2021/07/17 11:44:30;;;;;;;23.77;16.02;;;;;;;;;;5024219;28;20143;-80
2021/07/17 11:47:00;;;;;;;20.63;15.70;;;;;;;;;;5023760;28;20030;-81
2021/07/17 11:49:30;;;;;;;17.15;13.38;;;;;;;;;;5006571;28;20486;-79
2021/07/17 11:51:58;;;;;;;21.85;15.82;;;;;;;;;;5024477;28;20037;-79
2021/07/17 11:54:28;;;;;;;21.20;15.60;;;;;;;;;;5005133;28;20056;-80
2021/07/17 11:57:01;;;;;;;20.45;15.80;;;;;;;;;;5023114;28;20026;-80
2021/07/17 11:59:27;;;;;;;25.88;16.25;;;;;;;;;;5004050;28;20037;-80
2021/07/17 12:02:05;;;;;;;20.75;15.43;;;;;;;;;;5004700;28;20363;-81
2021/07/17 12:04:36;;;;;;;21.15;14.57;;;;;;;;;;5030883;28;20068;-81
2021/07/17 12:07:08;;;;;;;24.67;16.48;;;;;;;;;;5048839;28;20033;-79
2021/07/17 12:09:41;;;;;;;21.05;15.15;;;;;;;;;;5035576;28;20026;-80
2021/07/17 12:12:18;;;;;;;18.45;14.52;;;;;;;;;;5027217;28;20033;-85
2021/07/17 12:14:45;;;;;;;18.05;14.88;;;;;;;;;;5022200;28;20053;-78
2021/07/17 12:17:11;;;;;;;20.58;15.57;;;;;;;;;;5021770;28;20315;-80
2021/07/17 12:19:37;;;;;;;22.98;16.08;;;;;;;;;;5021522;28;20029;-79
2021/07/17 12:22:03;;;;;;;24.27;15.88;;;;;;;;;;5021599;28;20029;-80
2021/07/17 12:24:29;;;;;;;22.88;15.18;;;;;;;;;;5021332;28;20030;-81
2021/07/17 12:27:03;;;;;;;21.25;16.05;;;;;;;;;;5021228;28;20386;-78
2021/07/17 12:29:29;;;;;;;21.58;15.75;;;;;;;;;;5012404;28;20013;-78
2021/07/17 12:31:59;;;;;;;22.10;14.88;;;;;;;;;;5037283;28;20029;-79
2021/07/17 12:34:25;;;;;;;15.02;13.23;;;;;;;;;;5037521;28;20032;-81
2021/07/17 12:36:51;;;;;;;18.75;15.23;;;;;;;;;;5024365;28;20030;-80
2021/07/17 12:39:21;;;;;;;19.10;13.50;;;;;;;;;;5036284;28;20033;-78
2021/07/17 12:41:49;;;;;;;17.50;14.02;;;;;;;;;;5020768;28;20018;-79
2021/07/17 12:44:15;;;;;;;23.25;14.20;;;;;;;;;;5020099;28;20125;-79
2021/07/17 12:46:43;;;;;;;17.92;12.27;;;;;;;;;;5001934;28;20037;-80
2021/07/17 12:49:13;;;;;;;16.98;13.35;;;;;;;;;;5020571;28;20079;-80
2021/07/17 12:52:06;;;;;;;14.43;12.50;;;;;;;;;;5003699;28;20037;-79
2021/07/17 12:54:32;;;;;;;20.30;12.68;;;;;;;;;;5004589;28;20104;-80
2021/07/17 12:56:59;;;;;;;17.60;12.25;;;;;;;;;;5023856;28;20030;-80
2021/07/17 12:59:33;;;;;;;16.15;11.77;;;;;;;;;;5005330;28;20058;-81
2021/07/17 13:02:07;;;;;;;17.20;12.75;;;;;;;;;;5034595;28;20029;-82
2021/07/17 13:04:33;;;;;;;13.80;11.45;;;;;;;;;;5040829;28;20022;-81
2021/07/17 13:07:00;;;;;;;19.25;11.68;;;;;;;;;;5038403;28;20022;-81
2021/07/17 13:09:27;;;;;;;16.80;12.10;;;;;;;;;;5009072;28;20103;-81
2021/07/17 13:11:53;;;;;;;18.65;12.75;;;;;;;;;;5029304;28;20014;-81
2021/07/17 13:14:23;;;;;;;15.85;11.73;;;;;;;;;;5014664;28;20029;-81
2021/07/17 13:16:49;;;;;;;11.68;10.32;;;;;;;;;;5032914;28;20014;-79
2021/07/17 13:19:15;;;;;;;14.32;11.40;;;;;;;;;;5033082;28;20018;-81
2021/07/17 13:21:46;;;;;;;13.23;10.60;;;;;;;;;;5015823;28;20026;-79
2021/07/17 13:24:18;;;;;;;12.85;9.77;;;;;;;;;;5016209;28;20061;-81
2021/07/17 13:26:52;;;;;;;11.10;9.90;;;;;;;;;;5038257;28;20034;-81
2021/07/17 13:29:21;;;;;;;13.10;10.02;;;;;;;;;;5020497;28;20025;-81
2021/07/17 13:31:58;;;;;;;13.38;9.57;;;;;;;;;;5046487;28;20164;-80
2021/07/17 13:34:28;;;;;;;13.55;9.63;;;;;;;;;;5043938;28;20051;-80
2021/07/17 13:36:55;;;;;;;14.93;9.63;;;;;;;;;;5055456;28;20112;-80
2021/07/17 13:39:23;;;;;;;12.00;8.80;;;;;;;;;;5032168;28;20064;-79
2021/07/17 13:41:49;;;;;;;12.55;9.95;;;;;;;;;;5034410;28;20018;-79
2021/07/17 13:44:16;;;;;;;11.95;9.88;;;;;;;;;;5015539;28;20025;-79
2021/07/17 13:46:43;;;;;;;12.75;8.93;;;;;;;;;;5034564;28;20026;-79
2021/07/17 13:49:13;;;;;;;12.77;8.98;;;;;;;;;;5035526;28;20061;-79
2021/07/17 13:51:39;;;;;;;11.88;9.07;;;;;;;;;;5034060;28;20022;-80
2021/07/17 13:54:05;;;;;;;12.00;9.15;;;;;;;;;;5012623;28;20034;-79
2021/07/17 13:59:59;;;;;;;12.13;8.55;;;;;;;;;;4987404;28;20171;-81
2021/07/17 14:02:25;;;;;;;15.05;9.43;;;;;;;;;;5029993;28;20048;-80
2021/07/17 14:04:51;;;;;;;11.25;9.18;;;;;;;;;;5020260;28;20417;-79
2021/07/17 14:07:17;;;;;;;14.88;9.43;;;;;;;;;;5024276;28;20022;-80
2021/07/17 14:09:47;;;;;;;15.23;10.15;;;;;;;;;;5027701;28;20553;-80
2021/07/17 14:12:16;;;;;;;9.65;8.65;;;;;;;;;;5004479;28;20072;-81
2021/07/17 14:14:42;;;;;;;12.13;9.07;;;;;;;;;;5023199;28;20056;-81
2021/07/17 14:17:09;;;;;;;11.38;8.90;;;;;;;;;;5025680;28;20045;-79
2021/07/17 14:19:35;;;;;;;13.70;9.63;;;;;;;;;;5025830;28;20398;-80
2021/07/17 14:22:01;;;;;;;10.52;9.40;;;;;;;;;;5024964;28;20026;-81
2021/07/17 14:24:27;;;;;;;10.95;8.93;;;;;;;;;;5022531;28;20101;-80
2021/07/17 14:26:53;;;;;;;9.68;8.27;;;;;;;;;;5022654;28;20033;-81
2021/07/17 14:29:19;;;;;;;13.88;8.10;;;;;;;;;;5021504;28;20022;-81